Time;durP1;ratioP1;P1;durP2;ratioP2;P2;SDS_P1;SDS_P2;PMS_P1;PMS_P2;Temp;Humidity;BMP_temperature;BMP_pressure;BME280_temperature;BME280_humidity;BME280_pressure;Samples;Min_cycle;Max_cycle;Signal;HPM_P1;HPM_P2
2022/08/26 00:01:21;;;;;;;;;;;25.10;94.50;;;;;;5047528;28;19946;-46
2022/08/26 00:03:47;;;;;;;;;;;25.10;94.60;;;;;;5054474;28;20008;-54
2022/08/26 00:06:13;;;;;;;;;;;25.20;94.60;;;;;;5054539;28;19917;-46
2022/08/26 00:08:39;;;;;;;;;;;25.10;94.60;;;;;;5054761;28;19912;-45
2022/08/26 00:11:05;;;;;;;;;;;25.00;94.70;;;;;;5054923;28;19924;-45
2022/08/26 00:13:31;;;;;;;;;;;25.00;94.80;;;;;;5054551;28;19909;-45
2022/08/26 00:15:57;;;;;;;;;;;24.90;94.90;;;;;;5054567;28;20007;-46
2022/08/26 00:18:23;;;;;;;;;;;24.90;95.00;;;;;;5054453;28;19941;-46
2022/08/26 00:20:49;;;;;;;;;;;24.80;95.00;;;;;;5054393;28;20432;-49
2022/08/26 00:23:14;;;;;;;;;;;24.80;95.10;;;;;;5053766;28;19924;-51
2022/08/26 00:25:40;;;;;;;;;;;24.80;95.10;;;;;;5054143;28;19959;-54
2022/08/26 00:28:05;;;;;;;;;;;24.80;95.10;;;;;;5053741;28;19971;-46
2022/08/26 00:30:33;;;;;;;;;;;24.80;95.20;;;;;;5053756;28;19913;-46
2022/08/26 00:32:59;;;;;;;;;;;24.80;95.20;;;;;;5045054;28;19917;-51
2022/08/26 00:35:25;;;;;;;;;;;24.80;95.20;;;;;;5049482;28;19913;-51
2022/08/26 00:37:51;;;;;;;;;;;24.80;95.30;;;;;;5051329;28;19909;-50
2022/08/26 00:40:19;;;;;;;;;;;24.80;95.30;;;;;;5046487;28;20270;-47
2022/08/26 00:42:44;;;;;;;;;;;24.70;95.20;;;;;;5049061;28;19909;-53
2022/08/26 00:45:10;;;;;;;;;;;24.70;95.40;;;;;;5052999;28;19921;-46
2022/08/26 00:47:38;;;;;;;;;;;24.70;95.40;;;;;;5054494;28;19913;-46
2022/08/26 00:50:06;;;;;;;;;;;24.70;95.50;;;;;;5052583;28;20415;-48
2022/08/26 00:52:33;;;;;;;;;;;24.70;95.50;;;;;;5054043;28;20084;-47
2022/08/26 00:55:05;;;;;;;;;;;24.60;95.60;;;;;;5053945;28;20439;-48
2022/08/26 00:57:31;;;;;;;;;;;24.60;95.60;;;;;;5053947;28;19909;-49
2022/08/26 00:59:58;;;;;;;;;;;24.60;95.80;;;;;;5053173;28;19916;-47
2022/08/26 01:02:24;;;;;;;;;;;24.50;96.00;;;;;;5054040;28;19916;-45
2022/08/26 01:04:51;;;;;;;;;;;24.50;96.00;;;;;;5053826;28;19913;-52
2022/08/26 01:07:16;;;;;;;;;;;24.50;96.00;;;;;;5053302;28;20369;-45
2022/08/26 01:09:42;;;;;;;;;;;24.60;96.00;;;;;;5054418;28;19917;-46
2022/08/26 01:12:08;;;;;;;;;;;24.60;96.00;;;;;;5055317;28;20399;-48
2022/08/26 01:14:34;;;;;;;;;;;24.60;96.10;;;;;;5055025;28;19912;-48
2022/08/26 01:17:01;;;;;;;;;;;24.60;96.00;;;;;;5053309;28;20296;-48
2022/08/26 01:19:46;;;;;;;;;;;24.60;96.00;;;;;;5054203;28;19925;-50
2022/08/26 01:22:20;;;;;;;;;;;24.60;96.00;;;;;;5023277;28;19920;-54
2022/08/26 01:24:46;;;;;;;;;;;24.60;96.00;;;;;;5053893;28;19917;-46
2022/08/26 01:27:14;;;;;;;;;;;24.60;96.10;;;;;;5049737;28;19925;-48
2022/08/26 01:29:41;;;;;;;;;;;24.60;96.20;;;;;;5054233;28;20006;-53
2022/08/26 01:32:09;;;;;;;;;;;24.60;96.20;;;;;;5053441;28;19912;-51
2022/08/26 01:34:36;;;;;;;;;;;24.50;96.20;;;;;;5049680;28;20341;-53
2022/08/26 01:37:08;;;;;;;;;;;24.60;96.20;;;;;;5053742;28;19916;-53
2022/08/26 01:39:34;;;;;;;;;;;24.50;96.20;;;;;;5053539;28;19913;-50
2022/08/26 01:42:02;;;;;;;;;;;24.50;96.40;;;;;;5052955;28;20372;-45
2022/08/26 01:44:29;;;;;;;;;;;24.40;96.50;;;;;;5052904;28;19999;-49
2022/08/26 01:46:56;;;;;;;;;;;24.40;96.50;;;;;;5053167;28;20019;-53
2022/08/26 01:49:23;;;;;;;;;;;24.30;96.60;;;;;;5053039;28;19913;-54
2022/08/26 01:51:49;;;;;;;;;;;24.30;96.70;;;;;;5054530;28;19940;-46
2022/08/26 01:54:15;;;;;;;;;;;24.20;97.00;;;;;;5053166;28;19921;-48
2022/08/26 01:56:41;;;;;;;;;;;24.20;97.10;;;;;;5052887;28;19932;-45
2022/08/26 01:59:08;;;;;;;;;;;24.10;97.00;;;;;;5052539;28;19920;-47
2022/08/26 02:01:33;;;;;;;;;;;24.10;97.10;;;;;;5052682;28;20331;-45
2022/08/26 02:04:07;;;;;;;;;;;24.00;97.30;;;;;;5052096;28;19919;-47
2022/08/26 02:06:34;;;;;;;;;;;24.00;97.40;;;;;;5053103;28;19909;-52
2022/08/26 02:09:00;;;;;;;;;;;24.00;97.50;;;;;;5052812;28;20392;-47
2022/08/26 02:11:26;;;;;;;;;;;23.90;97.50;;;;;;5051140;28;20320;-49
2022/08/26 02:14:01;;;;;;;;;;;23.90;97.70;;;;;;5052152;28;19962;-46
2022/08/26 02:16:30;;;;;;;;;;;23.90;97.70;;;;;;5052180;28;20385;-50
2022/08/26 02:18:56;;;;;;;;;;;23.90;97.70;;;;;;5052185;28;19913;-46
2022/08/26 02:21:22;;;;;;;;;;;23.90;97.60;;;;;;5052226;28;20284;-47
2022/08/26 02:23:47;;;;;;;;;;;23.70;97.80;;;;;;5052001;28;19932;-50
2022/08/26 02:26:14;;;;;;;;;;;23.60;98.00;;;;;;5052347;28;20394;-47
2022/08/26 02:29:01;;;;;;;;;;;23.50;98.20;;;;;;5051391;28;20007;-47
2022/08/26 02:31:26;;;;;;;;;;;23.50;98.50;;;;;;5049459;28;19952;-50
2022/08/26 02:33:52;;;;;;;;;;;23.40;98.70;;;;;;5052196;28;19920;-49
2022/08/26 02:36:21;;;;;;;;;;;23.30;98.80;;;;;;5052232;28;19950;-48
2022/08/26 02:38:47;;;;;;;;;;;23.40;98.80;;;;;;5052958;28;20303;-49
2022/08/26 02:41:12;;;;;;;;;;;23.40;98.80;;;;;;5051089;28;19917;-46
2022/08/26 02:43:38;;;;;;;;;;;23.50;98.70;;;;;;5053066;28;19979;-47
2022/08/26 02:46:04;;;;;;;;;;;23.60;98.70;;;;;;5052839;28;19955;-53
2022/08/26 02:48:30;;;;;;;;;;;23.60;98.50;;;;;;5051903;28;20000;-47
2022/08/26 02:50:57;;;;;;;;;;;23.60;98.50;;;;;;5052612;28;19972;-55
2022/08/26 02:53:23;;;;;;;;;;;23.60;98.50;;;;;;5052696;28;19920;-45
2022/08/26 02:55:48;;;;;;;;;;;23.60;98.90;;;;;;5054111;28;19909;-46
2022/08/26 02:58:14;;;;;;;;;;;23.60;98.60;;;;;;5056925;28;19928;-53
2022/08/26 03:00:40;;;;;;;;;;;23.60;98.70;;;;;;5054599;28;19923;-51
2022/08/26 03:03:06;;;;;;;;;;;23.60;98.80;;;;;;5056188;28;19912;-51
2022/08/26 03:05:32;;;;;;;;;;;23.60;98.90;;;;;;5056554;28;19909;-46
2022/08/26 03:07:58;;;;;;;;;;;23.60;98.90;;;;;;5056336;28;19992;-45
2022/08/26 03:10:23;;;;;;;;;;;23.60;99.00;;;;;;5055455;28;20400;-48
2022/08/26 03:12:49;;;;;;;;;;;23.60;99.00;;;;;;5054892;28;19919;-47
2022/08/26 03:15:15;;;;;;;;;;;23.60;99.10;;;;;;5039979;28;19952;-53
2022/08/26 03:17:41;;;;;;;;;;;23.50;99.20;;;;;;5036320;28;20007;-49
2022/08/26 03:20:10;;;;;;;;;;;23.50;99.30;;;;;;5039041;28;19925;-51
2022/08/26 03:22:36;;;;;;;;;;;23.60;99.30;;;;;;5056081;28;20017;-46
2022/08/26 03:25:03;;;;;;;;;;;23.60;99.20;;;;;;5056103;28;20284;-47
2022/08/26 03:27:29;;;;;;;;;;;23.60;99.20;;;;;;5055475;28;19909;-49
2022/08/26 03:32:39;;;;;;;;;;;23.50;99.30;;;;;;5055528;28;19968;-53
2022/08/26 03:35:04;;;;;;;;;;;23.50;99.20;;;;;;5054446;28;19971;-45
2022/08/26 03:37:30;;;;;;;;;;;23.40;99.40;;;;;;5055378;28;19909;-48
2022/08/26 03:39:55;;;;;;;;;;;23.50;99.50;;;;;;5054955;28;20404;-53
2022/08/26 03:42:21;;;;;;;;;;;23.50;99.50;;;;;;5055029;28;20491;-52
2022/08/26 03:44:47;;;;;;;;;;;23.50;99.50;;;;;;5044454;28;20308;-46
2022/08/26 03:47:12;;;;;;;;;;;23.40;99.60;;;;;;5035003;28;20369;-47
2022/08/26 03:49:38;;;;;;;;;;;23.40;99.50;;;;;;5044222;28;19921;-50
2022/08/26 03:52:04;;;;;;;;;;;23.40;99.70;;;;;;5054858;28;19909;-50
2022/08/26 03:54:30;;;;;;;;;;;23.30;99.70;;;;;;5054670;28;19913;-51
2022/08/26 03:56:55;;;;;;;;;;;23.30;99.80;;;;;;5055343;28;20012;-46
2022/08/26 03:59:21;;;;;;;;;;;23.20;99.90;;;;;;5053820;28;19952;-48
2022/08/26 04:01:46;;;;;;;;;;;23.20;99.80;;;;;;5054552;28;19960;-52
2022/08/26 04:04:12;;;;;;;;;;;23.10;99.90;;;;;;5054220;28;20332;-48
2022/08/26 04:06:41;;;;;;;;;;;23.00;99.90;;;;;;5053832;28;19913;-47
2022/08/26 04:09:08;;;;;;;;;;;22.90;99.90;;;;;;5054612;28;19916;-46
2022/08/26 04:11:34;;;;;;;;;;;22.90;99.90;;;;;;5036966;28;19960;-44
2022/08/26 04:14:03;;;;;;;;;;;22.80;99.90;;;;;;5053694;28;20335;-49
2022/08/26 04:16:28;;;;;;;;;;;22.80;99.90;;;;;;5053625;28;19991;-46
2022/08/26 04:18:55;;;;;;;;;;;22.70;99.90;;;;;;5055122;28;19955;-51
2022/08/26 04:21:20;;;;;;;;;;;22.70;99.90;;;;;;5053989;28;19909;-49
2022/08/26 04:23:46;;;;;;;;;;;22.70;99.90;;;;;;5054681;28;20222;-46
2022/08/26 04:26:12;;;;;;;;;;;22.70;99.90;;;;;;5054985;28;20446;-50
2022/08/26 04:28:37;;;;;;;;;;;22.80;99.90;;;;;;5054223;28;19980;-52
2022/08/26 04:31:03;;;;;;;;;;;22.80;99.90;;;;;;5052301;28;20519;-49
2022/08/26 04:33:28;;;;;;;;;;;22.80;99.90;;;;;;5053410;28;19917;-51
2022/08/26 04:36:01;;;;;;;;;;;22.70;99.90;;;;;;5054212;28;19956;-48
2022/08/26 04:38:27;;;;;;;;;;;22.80;99.90;;;;;;5052531;28;19912;-51
2022/08/26 04:40:52;;;;;;;;;;;22.80;99.90;;;;;;5053540;28;19938;-47
2022/08/26 04:43:18;;;;;;;;;;;22.80;99.90;;;;;;5053759;28;19982;-52
2022/08/26 04:45:43;;;;;;;;;;;22.80;99.90;;;;;;5047817;28;19970;-47
2022/08/26 04:48:09;;;;;;;;;;;22.80;99.90;;;;;;5052596;28;19948;-52
2022/08/26 04:50:34;;;;;;;;;;;22.90;99.90;;;;;;5053424;28;19917;-47
2022/08/26 04:53:00;;;;;;;;;;;23.00;99.90;;;;;;5053556;28;19939;-46
2022/08/26 04:55:25;;;;;;;;;;;23.00;99.90;;;;;;5052345;28;19924;-50
2022/08/26 04:57:51;;;;;;;;;;;23.00;99.90;;;;;;5054240;28;19913;-51
2022/08/26 05:00:18;;;;;;;;;;;23.10;99.90;;;;;;5053720;28;20066;-51
2022/08/26 05:02:44;;;;;;;;;;;23.10;99.90;;;;;;5052701;28;19909;-50
2022/08/26 05:05:10;;;;;;;;;;;23.00;99.90;;;;;;5053047;28;19920;-47
2022/08/26 05:07:36;;;;;;;;;;;22.90;99.90;;;;;;5053613;28;19917;-47
2022/08/26 05:10:03;;;;;;;;;;;22.80;99.90;;;;;;5053487;28;20380;-52
2022/08/26 05:12:28;;;;;;;;;;;22.70;99.90;;;;;;5053573;28;19909;-47
2022/08/26 05:14:54;;;;;;;;;;;22.70;99.90;;;;;;5053567;28;20257;-47
2022/08/26 05:17:20;;;;;;;;;;;22.70;99.90;;;;;;5052094;28;19963;-53
2022/08/26 05:19:46;;;;;;;;;;;22.80;99.90;;;;;;5053089;28;19971;-54
2022/08/26 05:22:12;;;;;;;;;;;22.80;99.90;;;;;;5053527;28;19977;-48
2022/08/26 05:24:37;;;;;;;;;;;22.90;99.90;;;;;;5052419;28;20012;-53
2022/08/26 05:27:03;;;;;;;;;;;23.00;99.90;;;;;;5053652;28;19913;-48
2022/08/26 05:29:28;;;;;;;;;;;23.00;99.90;;;;;;5053680;28;19920;-53
2022/08/26 05:31:54;;;;;;;;;;;23.00;99.90;;;;;;5053290;28;19908;-55
2022/08/26 05:34:19;;;;;;;;;;;22.90;99.90;;;;;;5053475;28;20064;-44
2022/08/26 05:36:45;;;;;;;;;;;22.90;99.90;;;;;;5053946;28;19954;-47
2022/08/26 05:39:11;;;;;;;;;;;22.70;99.90;;;;;;5053755;28;20262;-51
2022/08/26 05:41:37;;;;;;;;;;;22.60;99.90;;;;;;5052927;28;19916;-52
2022/08/26 05:44:07;;;;;;;;;;;22.50;99.90;;;;;;5049081;28;19921;-49
2022/08/26 05:46:33;;;;;;;;;;;22.50;99.90;;;;;;5034112;28;19939;-51
2022/08/26 05:48:59;;;;;;;;;;;22.50;99.90;;;;;;5034912;28;20400;-51
2022/08/26 05:51:24;;;;;;;;;;;22.40;99.90;;;;;;5037950;28;20003;-45
2022/08/26 05:53:50;;;;;;;;;;;22.40;99.90;;;;;;5051468;28;19917;-47
2022/08/26 05:56:18;;;;;;;;;;;22.50;99.90;;;;;;5051366;28;19913;-48
2022/08/26 05:58:45;;;;;;;;;;;22.50;99.90;;;;;;5052260;28;20281;-50
2022/08/26 06:01:13;;;;;;;;;;;22.60;99.90;;;;;;5052245;28;19912;-51
2022/08/26 06:03:39;;;;;;;;;;;22.60;99.90;;;;;;5046074;28;19940;-45
2022/08/26 06:06:06;;;;;;;;;;;22.60;99.90;;;;;;5052177;28;20327;-50
2022/08/26 06:08:31;;;;;;;;;;;22.60;99.90;;;;;;5051311;28;19921;-51
2022/08/26 06:11:01;;;;;;;;;;;22.60;99.90;;;;;;5051880;28;20365;-49
2022/08/26 06:13:28;;;;;;;;;;;22.60;99.90;;;;;;5052586;28;19916;-46
2022/08/26 06:15:54;;;;;;;;;;;22.60;99.90;;;;;;5052815;28;20339;-50
2022/08/26 06:18:26;;;;;;;;;;;22.60;99.90;;;;;;5052329;28;19956;-47
2022/08/26 06:20:53;;;;;;;;;;;22.60;99.90;;;;;;5052467;28;19920;-50
2022/08/26 06:26:03;;;;;;;;;;;22.60;99.90;;;;;;5052226;28;19908;-46
2022/08/26 06:28:29;;;;;;;;;;;22.60;99.90;;;;;;5053005;28;19913;-51
2022/08/26 06:30:55;;;;;;;;;;;22.60;99.90;;;;;;5053516;28;19909;-51
2022/08/26 06:33:24;;;;;;;;;;;22.60;99.90;;;;;;5056691;28;19917;-52
2022/08/26 06:35:51;;;;;;;;;;;22.80;99.90;;;;;;5056967;28;20515;-50
2022/08/26 06:38:17;;;;;;;;;;;22.70;99.90;;;;;;5056684;28;19925;-51
2022/08/26 06:40:44;;;;;;;;;;;22.70;99.90;;;;;;5055515;28;19939;-48
2022/08/26 06:43:10;;;;;;;;;;;22.80;99.90;;;;;;5056908;28;19956;-45
2022/08/26 06:45:37;;;;;;;;;;;22.90;99.90;;;;;;5056317;28;20015;-50
2022/08/26 06:48:03;;;;;;;;;;;22.90;99.90;;;;;;5055057;28;19978;-50
2022/08/26 06:50:28;;;;;;;;;;;23.10;99.90;;;;;;5055820;28;19924;-48
2022/08/26 06:52:54;;;;;;;;;;;23.10;99.90;;;;;;5049799;28;19913;-46
2022/08/26 06:55:19;;;;;;;;;;;23.20;99.90;;;;;;5045856;28;19916;-46
2022/08/26 06:57:45;;;;;;;;;;;23.20;99.90;;;;;;5056132;28;19913;-51
2022/08/26 07:00:11;;;;;;;;;;;23.30;99.90;;;;;;5055181;28;20296;-48
2022/08/26 07:02:38;;;;;;;;;;;23.40;99.90;;;;;;5055583;28;20370;-52
2022/08/26 07:05:04;;;;;;;;;;;23.40;99.90;;;;;;5050302;28;19991;-46
2022/08/26 07:07:29;;;;;;;;;;;23.40;99.90;;;;;;5053657;28;19928;-50
2022/08/26 07:09:55;;;;;;;;;;;23.50;99.90;;;;;;5055704;28;19988;-50
2022/08/26 07:12:20;;;;;;;;;;;23.60;99.90;;;;;;5054895;28;20362;-53
2022/08/26 07:14:47;;;;;;;;;;;23.70;99.90;;;;;;5055641;28;19916;-48
2022/08/26 07:17:12;;;;;;;;;;;23.90;99.90;;;;;;5052773;28;19918;-48
2022/08/26 07:19:38;;;;;;;;;;;23.90;99.90;;;;;;5057342;28;20277;-52
2022/08/26 07:22:04;;;;;;;;;;;23.90;99.90;;;;;;5057263;28;19923;-52
2022/08/26 07:24:33;;;;;;;;;;;24.00;99.90;;;;;;5058953;28;20023;-45
2022/08/26 07:27:00;;;;;;;;;;;24.00;99.90;;;;;;5042773;28;20012;-51
2022/08/26 07:29:27;;;;;;;;;;;24.10;99.80;;;;;;5036296;28;20296;-48
2022/08/26 07:31:53;;;;;;;;;;;24.00;99.90;;;;;;5055903;28;19916;-51
2022/08/26 07:34:19;;;;;;;;;;;24.10;99.90;;;;;;5055205;28;20015;-48
2022/08/26 07:36:44;;;;;;;;;;;24.00;99.90;;;;;;5051765;28;20006;-50
2022/08/26 07:39:10;;;;;;;;;;;24.10;99.90;;;;;;5053591;28;19913;-52
2022/08/26 07:41:35;;;;;;;;;;;24.10;99.90;;;;;;5048930;28;20349;-53
2022/08/26 07:44:01;;;;;;;;;;;24.10;99.90;;;;;;5053213;28;19921;-52
2022/08/26 07:46:27;;;;;;;;;;;24.10;99.90;;;;;;5050011;28;19921;-53
2022/08/26 07:48:52;;;;;;;;;;;24.10;99.90;;;;;;5068595;28;20377;-48
2022/08/26 07:51:19;;;;;;;;;;;24.20;99.90;;;;;;5053365;28;20062;-51
2022/08/26 07:53:45;;;;;;;;;;;24.20;99.90;;;;;;5054865;28;19917;-47
2022/08/26 07:56:11;;;;;;;;;;;24.20;99.90;;;;;;5051190;28;19913;-49
2022/08/26 07:58:37;;;;;;;;;;;24.20;99.90;;;;;;5055090;28;19917;-51
2022/08/26 08:01:03;;;;;;;;;;;24.20;99.90;;;;;;5051490;28;19920;-49
2022/08/26 08:03:28;;;;;;;;;;;24.30;99.90;;;;;;5051453;28;20410;-50
2022/08/26 08:05:54;;;;;;;;;;;24.30;99.90;;;;;;5054867;28;20004;-52
2022/08/26 08:08:20;;;;;;;;;;;24.30;99.90;;;;;;5054782;28;19917;-54
2022/08/26 08:10:46;;;;;;;;;;;24.40;99.90;;;;;;5053976;28;19976;-46
2022/08/26 08:13:11;;;;;;;;;;;24.50;99.90;;;;;;5055537;28;20321;-48
2022/08/26 08:15:37;;;;;;;;;;;24.60;99.90;;;;;;5051492;28;19921;-49
2022/08/26 08:18:03;;;;;;;;;;;24.60;99.90;;;;;;5052159;28;19951;-50
2022/08/26 08:20:29;;;;;;;;;;;24.60;99.90;;;;;;5054856;28;20289;-52
2022/08/26 08:22:55;;;;;;;;;;;24.70;99.70;;;;;;5053744;28;19992;-52
2022/08/26 08:25:21;;;;;;;;;;;24.80;99.40;;;;;;5054330;28;20535;-47
2022/08/26 08:27:49;;;;;;;;;;;24.90;99.40;;;;;;5054678;28;19921;-45
2022/08/26 08:30:16;;;;;;;;;;;24.90;99.30;;;;;;5054907;28;19942;-56
2022/08/26 08:32:42;;;;;;;;;;;25.00;99.30;;;;;;5046395;28;19917;-50
2022/08/26 08:35:08;;;;;;;;;;;25.10;98.90;;;;;;5053151;28;19916;-50
2022/08/26 08:37:34;;;;;;;;;;;25.10;99.00;;;;;;5053593;28;19913;-53
2022/08/26 08:40:00;;;;;;;;;;;25.20;99.30;;;;;;5053551;28;20386;-50
2022/08/26 08:42:33;;;;;;;;;;;25.20;99.00;;;;;;5048708;28;19916;-55
2022/08/26 08:45:02;;;;;;;;;;;25.20;99.20;;;;;;5050738;28;19963;-51
2022/08/26 08:47:28;;;;;;;;;;;25.30;99.00;;;;;;5053861;28;19913;-56
2022/08/26 08:49:56;;;;;;;;;;;25.40;99.00;;;;;;5052376;28;20329;-55
2022/08/26 08:52:27;;;;;;;;;;;25.60;98.80;;;;;;5053178;28;19920;-52
2022/08/26 08:54:54;;;;;;;;;;;25.80;99.00;;;;;;5053011;28;19944;-52
2022/08/26 08:57:38;;;;;;;;;;;26.00;98.30;;;;;;5054512;28;19913;-55
2022/08/26 09:00:09;;;;;;;;;;;26.10;98.00;;;;;;5054467;28;19926;-54
2022/08/26 09:02:40;;;;;;;;;;;26.20;98.10;;;;;;5054791;28;19909;-59
2022/08/26 09:05:06;;;;;;;;;;;26.20;97.80;;;;;;5054444;28;19920;-58
2022/08/26 09:07:39;;;;;;;;;;;26.20;98.00;;;;;;5052625;28;19917;-59
2022/08/26 09:10:05;;;;;;;;;;;26.30;97.80;;;;;;5048025;28;19920;-54
2022/08/26 09:12:31;;;;;;;;;;;26.30;97.90;;;;;;5052691;28;20315;-58
2022/08/26 09:15:03;;;;;;;;;;;26.50;97.60;;;;;;5046978;28;19917;-59
2022/08/26 09:17:42;;;;;;;;;;;26.60;97.60;;;;;;5052636;28;20292;-58
2022/08/26 09:20:12;;;;;;;;;;;26.60;97.50;;;;;;5054066;28;20308;-59
2022/08/26 09:22:38;;;;;;;;;;;26.80;97.50;;;;;;5053919;28;19916;-56
2022/08/26 09:25:05;;;;;;;;;;;26.90;97.30;;;;;;5053239;28;19913;-52
2022/08/26 09:27:34;;;;;;;;;;;27.00;97.00;;;;;;5054040;28;20419;-58
2022/08/26 09:30:00;;;;;;;;;;;27.00;96.80;;;;;;5054085;28;19913;-59
2022/08/26 09:32:26;;;;;;;;;;;27.20;96.80;;;;;;5053415;28;19917;-57
2022/08/26 09:34:54;;;;;;;;;;;27.40;96.80;;;;;;5053006;28;19912;-52
2022/08/26 09:37:40;;;;;;;;;;;27.50;96.00;;;;;;5053175;28;19934;-57
2022/08/26 09:40:18;;;;;;;;;;;27.60;96.10;;;;;;5052605;28;19921;-54
2022/08/26 09:42:43;;;;;;;;;;;27.70;95.70;;;;;;5053428;28;19948;-53
2022/08/26 09:45:11;;;;;;;;;;;27.80;95.40;;;;;;5051077;28;20331;-54
2022/08/26 09:47:51;;;;;;;;;;;27.90;95.20;;;;;;5053754;28;19955;-56
2022/08/26 09:50:33;;;;;;;;;;;28.00;94.80;;;;;;5052890;28;19923;-56
2022/08/26 09:53:14;;;;;;;;;;;28.00;95.10;;;;;;5050856;28;19913;-54
2022/08/26 09:55:41;;;;;;;;;;;27.90;94.50;;;;;;5048912;28;20011;-55
2022/08/26 09:58:11;;;;;;;;;;;27.90;94.30;;;;;;5053747;28;20018;-59
2022/08/26 10:00:38;;;;;;;;;;;28.00;94.20;;;;;;5053165;28;19917;-53
2022/08/26 10:03:05;;;;;;;;;;;28.20;94.30;;;;;;5052688;28;19917;-58
2022/08/26 10:05:34;;;;;;;;;;;28.20;94.10;;;;;;5053084;28;19913;-61
2022/08/26 10:08:13;;;;;;;;;;;28.20;94.30;;;;;;5053741;28;19908;-57
2022/08/26 10:10:40;;;;;;;;;;;28.30;93.60;;;;;;5053358;28;19913;-53
2022/08/26 10:13:22;;;;;;;;;;;28.30;93.50;;;;;;5050977;28;19963;-58
2022/08/26 10:16:17;;;;;;;;;;;28.40;93.60;;;;;;5043528;28;19919;-56
2022/08/26 10:18:46;;;;;;;;;;;28.30;94.10;;;;;;4996911;28;20423;-56
2022/08/26 10:21:19;;;;;;;;;;;28.50;93.70;;;;;;5040356;28;19913;-58
2022/08/26 10:23:47;;;;;;;;;;;28.50;93.50;;;;;;5055869;28;19909;-55
2022/08/26 10:26:42;;;;;;;;;;;28.60;93.20;;;;;;5053741;28;20273;-53
2022/08/26 10:29:14;;;;;;;;;;;28.70;93.00;;;;;;5037562;28;19916;-58
2022/08/26 10:31:43;;;;;;;;;;;28.90;92.50;;;;;;5052743;28;20304;-55
2022/08/26 10:34:09;;;;;;;;;;;28.90;91.30;;;;;;5051640;28;20007;-56
2022/08/26 10:36:48;;;;;;;;;;;28.90;91.40;;;;;;5054444;28;19909;-55
2022/08/26 10:39:37;;;;;;;;;;;29.00;91.40;;;;;;5053128;28;19971;-56
2022/08/26 10:42:06;;;;;;;;;;;29.00;91.70;;;;;;5022769;28;19909;-55
2022/08/26 10:44:32;;;;;;;;;;;29.10;91.80;;;;;;5040905;28;19916;-53
2022/08/26 10:47:02;;;;;;;;;;;29.20;91.80;;;;;;5053292;28;19915;-56
2022/08/26 10:49:27;;;;;;;;;;;29.20;91.60;;;;;;5052331;28;19917;-54
2022/08/26 10:51:59;;;;;;;;;;;29.30;91.30;;;;;;5054041;28;19988;-59
2022/08/26 10:54:33;;;;;;;;;;;29.30;91.20;;;;;;5048211;28;19948;-54
2022/08/26 10:57:01;;;;;;;;;;;29.40;91.00;;;;;;5053450;28;19909;-57
2022/08/26 10:59:27;;;;;;;;;;;29.50;91.00;;;;;;5052888;28;20277;-56
2022/08/26 11:02:05;;;;;;;;;;;29.60;91.00;;;;;;5050071;28;19913;-50
2022/08/26 11:04:37;;;;;;;;;;;29.50;90.80;;;;;;5043428;28;20054;-56
2022/08/26 11:07:21;;;;;;;;;;;29.60;90.50;;;;;;5053973;28;19920;-54
2022/08/26 11:09:47;;;;;;;;;;;29.40;90.80;;;;;;5053606;28;19912;-55
2022/08/26 11:12:40;;;;;;;;;;;29.60;90.60;;;;;;5036904;28;19913;-52
2022/08/26 11:15:07;;;;;;;;;;;29.50;90.30;;;;;;5036572;28;19913;-55
2022/08/26 11:17:45;;;;;;;;;;;29.60;89.90;;;;;;5054888;28;20281;-55
2022/08/26 11:20:32;;;;;;;;;;;29.30;90.20;;;;;;5049347;28;19967;-54
2022/08/26 11:23:17;;;;;;;;;;;29.40;90.10;;;;;;5056531;28;19909;-56
2022/08/26 11:25:55;;;;;;;;;;;29.60;89.20;;;;;;5056664;28;19908;-56
2022/08/26 11:28:39;;;;;;;;;;;29.70;89.00;;;;;;5056122;28;19912;-57
2022/08/26 11:31:08;;;;;;;;;;;29.70;88.70;;;;;;5056050;28;19909;-55
2022/08/26 11:33:43;;;;;;;;;;;29.90;88.40;;;;;;5054886;28;19917;-53
2022/08/26 11:36:09;;;;;;;;;;;30.00;87.10;;;;;;5055585;28;20014;-54
2022/08/26 11:38:39;;;;;;;;;;;30.10;86.40;;;;;;5056593;28;19964;-49
2022/08/26 11:41:08;;;;;;;;;;;30.20;85.80;;;;;;5056049;28;19912;-50
2022/08/26 11:43:34;;;;;;;;;;;30.30;84.80;;;;;;5057580;28;19912;-55
2022/08/26 11:46:09;;;;;;;;;;;30.30;83.90;;;;;;5056534;28;20363;-51
2022/08/26 11:48:36;;;;;;;;;;;30.40;83.10;;;;;;5055884;28;19971;-53
2022/08/26 11:51:04;;;;;;;;;;;30.30;83.50;;;;;;5057283;28;19909;-50
2022/08/26 11:53:31;;;;;;;;;;;30.50;83.60;;;;;;5036612;28;19924;-50
2022/08/26 11:55:58;;;;;;;;;;;30.60;82.60;;;;;;5036448;28;19909;-53
2022/08/26 11:58:25;;;;;;;;;;;30.50;83.00;;;;;;5055924;28;19913;-55
2022/08/26 12:00:53;;;;;;;;;;;30.50;83.50;;;;;;5056446;28;19919;-57
2022/08/26 12:03:23;;;;;;;;;;;30.60;83.60;;;;;;5055591;28;19920;-53
2022/08/26 12:05:50;;;;;;;;;;;30.30;84.30;;;;;;5055176;28;19948;-55
2022/08/26 12:08:21;;;;;;;;;;;30.20;84.30;;;;;;5055669;28;20399;-57
2022/08/26 12:10:47;;;;;;;;;;;30.30;83.80;;;;;;5055316;28;19968;-56
2022/08/26 12:13:21;;;;;;;;;;;30.50;83.20;;;;;;5055288;28;20011;-52
2022/08/26 12:15:51;;;;;;;;;;;30.60;82.50;;;;;;5054593;28;19948;-56
2022/08/26 12:18:18;;;;;;;;;;;30.60;81.10;;;;;;5053719;28;19980;-56
2022/08/26 12:20:47;;;;;;;;;;;30.70;79.50;;;;;;5054837;28;19917;-57
2022/08/26 12:23:31;;;;;;;;;;;30.70;79.70;;;;;;5055303;28;19917;-55
2022/08/26 12:26:06;;;;;;;;;;;30.70;81.10;;;;;;5054893;28;19919;-54
2022/08/26 12:28:40;;;;;;;;;;;30.70;82.00;;;;;;5054313;28;19920;-55
2022/08/26 12:31:06;;;;;;;;;;;30.70;80.90;;;;;;5054249;28;19909;-53
2022/08/26 12:33:34;;;;;;;;;;;30.80;81.20;;;;;;5054609;28;19923;-63
2022/08/26 12:36:00;;;;;;;;;;;30.90;80.60;;;;;;5054196;28;19936;-57
2022/08/26 12:38:26;;;;;;;;;;;30.80;81.10;;;;;;5054169;28;19960;-52
2022/08/26 12:40:52;;;;;;;;;;;30.90;80.50;;;;;;5054171;28;19962;-53
2022/08/26 12:43:37;;;;;;;;;;;30.90;80.60;;;;;;5054327;28;20356;-53
2022/08/26 12:46:03;;;;;;;;;;;31.00;80.40;;;;;;5054495;28;19917;-56
2022/08/26 12:48:30;;;;;;;;;;;31.00;80.20;;;;;;5054707;28;19913;-58
2022/08/26 12:50:57;;;;;;;;;;;31.10;80.20;;;;;;5054759;28;19921;-53
2022/08/26 12:53:24;;;;;;;;;;;31.40;79.90;;;;;;5054438;28;20281;-56
2022/08/26 12:55:54;;;;;;;;;;;31.50;78.80;;;;;;5054984;28;19960;-53
2022/08/26 12:58:23;;;;;;;;;;;31.30;79.90;;;;;;5054299;28;19912;-55
2022/08/26 13:01:09;;;;;;;;;;;31.50;78.80;;;;;;5054155;28;19931;-53
2022/08/26 13:03:42;;;;;;;;;;;31.40;78.90;;;;;;5046361;28;19919;-55
2022/08/26 13:06:10;;;;;;;;;;;31.00;79.00;;;;;;5053940;28;19949;-55
2022/08/26 13:08:40;;;;;;;;;;;30.90;78.80;;;;;;5061736;28;19913;-54
2022/08/26 13:11:11;;;;;;;;;;;30.90;79.20;;;;;;5059000;28;20403;-55
2022/08/26 13:13:36;;;;;;;;;;;30.80;79.70;;;;;;5033473;28;20529;-51
2022/08/26 13:16:02;;;;;;;;;;;30.90;79.40;;;;;;5034114;28;19919;-49
2022/08/26 13:18:28;;;;;;;;;;;30.70;79.40;;;;;;5051838;28;19923;-53
2022/08/26 13:20:54;;;;;;;;;;;30.80;78.80;;;;;;5054482;28;19913;-46
2022/08/26 13:23:20;;;;;;;;;;;30.80;77.90;;;;;;5055055;28;19959;-46
2022/08/26 13:25:45;;;;;;;;;;;30.70;81.90;;;;;;5052502;28;19917;-54
2022/08/26 13:28:11;;;;;;;;;;;30.50;84.00;;;;;;5054273;28;19975;-55
2022/08/26 13:30:37;;;;;;;;;;;30.30;84.90;;;;;;5049682;28;19909;-51
2022/08/26 13:33:03;;;;;;;;;;;30.00;86.60;;;;;;5052866;28;19935;-51
2022/08/26 13:35:28;;;;;;;;;;;29.60;88.90;;;;;;5052446;28;19913;-48
2022/08/26 13:37:54;;;;;;;;;;;29.00;90.90;;;;;;5054797;28;20022;-47
2022/08/26 13:40:20;;;;;;;;;;;28.10;92.40;;;;;;5050900;28;19959;-51
2022/08/26 13:42:45;;;;;;;;;;;27.30;92.80;;;;;;5054702;28;19913;-55
2022/08/26 13:45:11;;;;;;;;;;;27.00;92.70;;;;;;5053628;28;19920;-49
2022/08/26 13:47:36;;;;;;;;;;;26.60;92.50;;;;;;5046479;28;20018;-48
2022/08/26 13:50:03;;;;;;;;;;;26.40;92.10;;;;;;5045893;28;20446;-52
2022/08/26 13:52:28;;;;;;;;;;;26.40;91.80;;;;;;5054656;28;19916;-52
2022/08/26 13:54:54;;;;;;;;;;;26.50;91.00;;;;;;5052543;28;20361;-52
2022/08/26 13:57:23;;;;;;;;;;;26.40;90.00;;;;;;5054209;28;19912;-51
2022/08/26 13:59:50;;;;;;;;;;;26.20;91.50;;;;;;5048908;28;19932;-51
2022/08/26 14:02:15;;;;;;;;;;;26.00;93.00;;;;;;5051706;28;19971;-51
2022/08/26 14:04:41;;;;;;;;;;;25.90;93.10;;;;;;5044966;28;20331;-51
2022/08/26 14:07:07;;;;;;;;;;;25.70;93.20;;;;;;5052401;28;19917;-51
2022/08/26 14:09:32;;;;;;;;;;;25.60;93.50;;;;;;5061483;28;19913;-54
2022/08/26 14:11:59;;;;;;;;;;;25.50;93.70;;;;;;5063558;28;19966;-55
2022/08/26 14:14:24;;;;;;;;;;;25.50;93.80;;;;;;5058199;28;19921;-52
2022/08/26 14:16:50;;;;;;;;;;;25.40;93.90;;;;;;5061829;28;19920;-50
2022/08/26 14:19:16;;;;;;;;;;;25.40;94.80;;;;;;5064243;28;20397;-51
2022/08/26 14:21:41;;;;;;;;;;;25.40;95.10;;;;;;5044592;28;19920;-52
2022/08/26 14:24:07;;;;;;;;;;;25.30;95.30;;;;;;5061314;28;19920;-51
2022/08/26 14:26:33;;;;;;;;;;;25.30;95.60;;;;;;5056650;28;20369;-50